sensor_id;sensor_type;location;lat;lon;timestamp;P1;durP1;ratioP1;P2;durP2;ratioP2
37983;SDS011;64625;50.882;4.376;2023-05-24T00:00:15;15.82;;;4.22;;
37983;SDS011;64625;50.882;4.376;2023-05-24T00:02:41;20.67;;;3.13;;
37983;SDS011;64625;50.882;4.376;2023-05-24T00:05:08;16.15;;;3.88;;
37983;SDS011;64625;50.882;4.376;2023-05-24T00:07:35;10.23;;;3.13;;
37983;SDS011;64625;50.882;4.376;2023-05-24T00:10:02;18.25;;;3.30;;
37983;SDS011;64625;50.882;4.376;2023-05-24T00:12:29;14.40;;;4.75;;
37983;SDS011;64625;50.882;4.376;2023-05-24T00:14:55;20.52;;;3.22;;
37983;SDS011;64625;50.882;4.376;2023-05-24T00:17:23;21.10;;;3.33;;
37983;SDS011;64625;50.882;4.376;2023-05-24T00:19:49;12.75;;;2.90;;
37983;SDS011;64625;50.882;4.376;2023-05-24T00:22:16;14.13;;;3.53;;
37983;SDS011;64625;50.882;4.376;2023-05-24T00:24:45;20.25;;;3.33;;
37983;SDS011;64625;50.882;4.376;2023-05-24T00:27:12;17.05;;;3.67;;
37983;SDS011;64625;50.882;4.376;2023-05-24T00:29:38;21.75;;;6.25;;
37983;SDS011;64625;50.882;4.376;2023-05-24T00:32:04;21.75;;;5.13;;
37983;SDS011;64625;50.882;4.376;2023-05-24T00:34:30;21.98;;;4.78;;
37983;SDS011;64625;50.882;4.376;2023-05-24T00:36:56;19.95;;;3.42;;
37983;SDS011;64625;50.882;4.376;2023-05-24T00:39:22;15.70;;;5.15;;
37983;SDS011;64625;50.882;4.376;2023-05-24T00:41:48;11.65;;;2.53;;
37983;SDS011;64625;50.882;4.376;2023-05-24T00:44:14;11.40;;;3.13;;
37983;SDS011;64625;50.882;4.376;2023-05-24T00:46:40;12.23;;;3.00;;
37983;SDS011;64625;50.882;4.376;2023-05-24T00:49:06;9.82;;;2.55;;
37983;SDS011;64625;50.882;4.376;2023-05-24T00:51:32;13.70;;;2.97;;
37983;SDS011;64625;50.882;4.376;2023-05-24T00:54:00;13.80;;;5.43;;
37983;SDS011;64625;50.882;4.376;2023-05-24T00:56:27;19.90;;;3.65;;
37983;SDS011;64625;50.882;4.376;2023-05-24T00:58:56;22.58;;;3.80;;
37983;SDS011;64625;50.882;4.376;2023-05-24T01:01:21;17.42;;;4.57;;
37983;SDS011;64625;50.882;4.376;2023-05-24T01:03:55;16.25;;;3.33;;
37983;SDS011;64625;50.882;4.376;2023-05-24T01:06:21;15.93;;;3.28;;
37983;SDS011;64625;50.882;4.376;2023-05-24T01:14:21;7.53;;;3.22;;
37983;SDS011;64625;50.882;4.376;2023-05-24T01:25:16;17.60;;;5.03;;
37983;SDS011;64625;50.882;4.376;2023-05-24T01:30:38;17.60;;;5.22;;
37983;SDS011;64625;50.882;4.376;2023-05-24T01:33:05;7.45;;;2.80;;
37983;SDS011;64625;50.882;4.376;2023-05-24T01:35:31;8.90;;;4.32;;
37983;SDS011;64625;50.882;4.376;2023-05-24T01:38:04;17.20;;;3.47;;
37983;SDS011;64625;50.882;4.376;2023-05-24T01:40:35;16.05;;;3.67;;
37983;SDS011;64625;50.882;4.376;2023-05-24T01:43:13;19.58;;;3.72;;
37983;SDS011;64625;50.882;4.376;2023-05-24T01:51:31;14.48;;;3.80;;
37983;SDS011;64625;50.882;4.376;2023-05-24T01:54:03;8.70;;;2.92;;
37983;SDS011;64625;50.882;4.376;2023-05-24T01:56:33;15.00;;;3.95;;
37983;SDS011;64625;50.882;4.376;2023-05-24T01:59:00;16.60;;;3.28;;
37983;SDS011;64625;50.882;4.376;2023-05-24T02:01:27;17.45;;;5.05;;
37983;SDS011;64625;50.882;4.376;2023-05-24T02:03:55;14.75;;;3.17;;
37983;SDS011;64625;50.882;4.376;2023-05-24T02:06:23;34.83;;;4.18;;
37983;SDS011;64625;50.882;4.376;2023-05-24T02:08:48;17.77;;;6.03;;
37983;SDS011;64625;50.882;4.376;2023-05-24T02:11:16;12.43;;;3.00;;
37983;SDS011;64625;50.882;4.376;2023-05-24T02:13:42;8.05;;;2.72;;
37983;SDS011;64625;50.882;4.376;2023-05-24T02:16:07;19.00;;;4.07;;
37983;SDS011;64625;50.882;4.376;2023-05-24T02:18:34;25.88;;;5.22;;
37983;SDS011;64625;50.882;4.376;2023-05-24T02:21:00;27.42;;;4.80;;
37983;SDS011;64625;50.882;4.376;2023-05-24T02:23:27;14.00;;;4.85;;
37983;SDS011;64625;50.882;4.376;2023-05-24T02:25:53;26.98;;;6.43;;
37983;SDS011;64625;50.882;4.376;2023-05-24T02:28:20;15.95;;;4.53;;
37983;SDS011;64625;50.882;4.376;2023-05-24T02:30:46;16.05;;;4.20;;
37983;SDS011;64625;50.882;4.376;2023-05-24T02:33:12;15.32;;;3.83;;
37983;SDS011;64625;50.882;4.376;2023-05-24T02:35:38;18.05;;;6.32;;
37983;SDS011;64625;50.882;4.376;2023-05-24T02:38:05;12.35;;;5.18;;
37983;SDS011;64625;50.882;4.376;2023-05-24T02:40:32;22.33;;;5.35;;
37983;SDS011;64625;50.882;4.376;2023-05-24T02:42:59;16.90;;;3.95;;
37983;SDS011;64625;50.882;4.376;2023-05-24T02:45:24;25.30;;;4.45;;
37983;SDS011;64625;50.882;4.376;2023-05-24T02:47:50;14.48;;;3.88;;
37983;SDS011;64625;50.882;4.376;2023-05-24T02:50:16;23.60;;;4.13;;
37983;SDS011;64625;50.882;4.376;2023-05-24T02:52:42;19.98;;;5.45;;
37983;SDS011;64625;50.882;4.376;2023-05-24T02:55:08;45.08;;;5.82;;
37983;SDS011;64625;50.882;4.376;2023-05-24T02:57:34;26.73;;;5.22;;
37983;SDS011;64625;50.882;4.376;2023-05-24T02:59:59;12.90;;;3.72;;
37983;SDS011;64625;50.882;4.376;2023-05-24T03:02:25;18.67;;;3.33;;
37983;SDS011;64625;50.882;4.376;2023-05-24T03:04:53;12.10;;;3.90;;
37983;SDS011;64625;50.882;4.376;2023-05-24T03:07:19;17.85;;;4.15;;
37983;SDS011;64625;50.882;4.376;2023-05-24T03:09:46;7.55;;;3.58;;
37983;SDS011;64625;50.882;4.376;2023-05-24T03:12:11;18.55;;;5.43;;
37983;SDS011;64625;50.882;4.376;2023-05-24T03:14:38;11.60;;;3.78;;
37983;SDS011;64625;50.882;4.376;2023-05-24T03:17:03;16.38;;;3.63;;
37983;SDS011;64625;50.882;4.376;2023-05-24T03:19:32;21.90;;;5.43;;
37983;SDS011;64625;50.882;4.376;2023-05-24T03:21:58;21.52;;;4.30;;
37983;SDS011;64625;50.882;4.376;2023-05-24T03:24:23;13.48;;;3.55;;
37983;SDS011;64625;50.882;4.376;2023-05-24T03:26:50;18.80;;;4.63;;
37983;SDS011;64625;50.882;4.376;2023-05-24T03:29:15;22.83;;;5.03;;
37983;SDS011;64625;50.882;4.376;2023-05-24T03:31:41;20.98;;;4.10;;
37983;SDS011;64625;50.882;4.376;2023-05-24T03:34:07;27.98;;;4.93;;
37983;SDS011;64625;50.882;4.376;2023-05-24T03:36:33;32.72;;;5.72;;
37983;SDS011;64625;50.882;4.376;2023-05-24T03:38:58;28.98;;;4.70;;
37983;SDS011;64625;50.882;4.376;2023-05-24T03:41:24;21.98;;;4.43;;
37983;SDS011;64625;50.882;4.376;2023-05-24T03:43:59;15.32;;;4.43;;
37983;SDS011;64625;50.882;4.376;2023-05-24T03:46:25;38.58;;;5.30;;
37983;SDS011;64625;50.882;4.376;2023-05-24T03:48:50;22.75;;;5.93;;
37983;SDS011;64625;50.882;4.376;2023-05-24T03:51:16;34.03;;;4.72;;
37983;SDS011;64625;50.882;4.376;2023-05-24T03:53:42;22.67;;;5.53;;
37983;SDS011;64625;50.882;4.376;2023-05-24T03:56:08;16.80;;;3.88;;
37983;SDS011;64625;50.882;4.376;2023-05-24T03:58:33;18.50;;;4.63;;
37983;SDS011;64625;50.882;4.376;2023-05-24T04:01:00;19.95;;;4.78;;
37983;SDS011;64625;50.882;4.376;2023-05-24T04:03:26;23.63;;;5.95;;
37983;SDS011;64625;50.882;4.376;2023-05-24T04:05:52;18.48;;;4.18;;
37983;SDS011;64625;50.882;4.376;2023-05-24T04:08:18;16.05;;;4.07;;
37983;SDS011;64625;50.882;4.376;2023-05-24T04:10:44;23.98;;;4.90;;
37983;SDS011;64625;50.882;4.376;2023-05-24T04:13:10;24.63;;;4.47;;
37983;SDS011;64625;50.882;4.376;2023-05-24T04:15:35;9.80;;;4.07;;
37983;SDS011;64625;50.882;4.376;2023-05-24T04:18:04;14.35;;;5.18;;
37983;SDS011;64625;50.882;4.376;2023-05-24T04:20:30;16.65;;;5.13;;
37983;SDS011;64625;50.882;4.376;2023-05-24T04:22:56;26.60;;;5.95;;
37983;SDS011;64625;50.882;4.376;2023-05-24T04:25:22;20.60;;;5.90;;
37983;SDS011;64625;50.882;4.376;2023-05-24T04:27:48;14.02;;;3.60;;
37983;SDS011;64625;50.882;4.376;2023-05-24T04:30:14;19.77;;;5.60;;
37983;SDS011;64625;50.882;4.376;2023-05-24T04:32:41;17.90;;;5.05;;
37983;SDS011;64625;50.882;4.376;2023-05-24T04:35:08;22.25;;;5.45;;
37983;SDS011;64625;50.882;4.376;2023-05-24T04:37:35;23.45;;;5.95;;
37983;SDS011;64625;50.882;4.376;2023-05-24T04:40:01;22.65;;;5.03;;
37983;SDS011;64625;50.882;4.376;2023-05-24T04:42:28;23.85;;;5.53;;
37983;SDS011;64625;50.882;4.376;2023-05-24T04:44:57;20.08;;;4.80;;
37983;SDS011;64625;50.882;4.376;2023-05-24T04:47:23;29.10;;;4.57;;
37983;SDS011;64625;50.882;4.376;2023-05-24T04:49:49;22.35;;;5.47;;
37983;SDS011;64625;50.882;4.376;2023-05-24T04:52:16;14.10;;;4.90;;
37983;SDS011;64625;50.882;4.376;2023-05-24T04:54:42;14.02;;;4.68;;
37983;SDS011;64625;50.882;4.376;2023-05-24T04:57:08;22.40;;;5.57;;
37983;SDS011;64625;50.882;4.376;2023-05-24T04:59:34;17.48;;;5.10;;
37983;SDS011;64625;50.882;4.376;2023-05-24T05:02:00;20.77;;;5.10;;
37983;SDS011;64625;50.882;4.376;2023-05-24T05:04:26;29.63;;;8.52;;
37983;SDS011;64625;50.882;4.376;2023-05-24T05:06:51;19.60;;;6.07;;
37983;SDS011;64625;50.882;4.376;2023-05-24T05:09:17;25.25;;;6.60;;
37983;SDS011;64625;50.882;4.376;2023-05-24T05:11:45;22.52;;;5.85;;
37983;SDS011;64625;50.882;4.376;2023-05-24T05:14:11;21.60;;;5.53;;
37983;SDS011;64625;50.882;4.376;2023-05-24T05:16:37;31.08;;;5.72;;
37983;SDS011;64625;50.882;4.376;2023-05-24T05:19:03;35.03;;;6.90;;
37983;SDS011;64625;50.882;4.376;2023-05-24T05:21:30;23.15;;;7.82;;
37983;SDS011;64625;50.882;4.376;2023-05-24T05:24:00;24.07;;;8.33;;
37983;SDS011;64625;50.882;4.376;2023-05-24T05:26:28;25.13;;;5.82;;
37983;SDS011;64625;50.882;4.376;2023-05-24T05:28:54;22.75;;;6.50;;
37983;SDS011;64625;50.882;4.376;2023-05-24T05:31:23;27.80;;;9.05;;
37983;SDS011;64625;50.882;4.376;2023-05-24T05:33:49;22.80;;;6.40;;
37983;SDS011;64625;50.882;4.376;2023-05-24T05:36:15;22.63;;;7.25;;
37983;SDS011;64625;50.882;4.376;2023-05-24T05:38:42;37.28;;;7.43;;
37983;SDS011;64625;50.882;4.376;2023-05-24T05:41:08;26.23;;;6.13;;
37983;SDS011;64625;50.882;4.376;2023-05-24T05:43:34;20.38;;;5.68;;
37983;SDS011;64625;50.882;4.376;2023-05-24T05:46:00;17.77;;;5.90;;
37983;SDS011;64625;50.882;4.376;2023-05-24T05:48:25;22.60;;;7.25;;
37983;SDS011;64625;50.882;4.376;2023-05-24T05:50:51;26.95;;;6.45;;
37983;SDS011;64625;50.882;4.376;2023-05-24T05:53:17;39.15;;;9.13;;
37983;SDS011;64625;50.882;4.376;2023-05-24T05:55:43;32.63;;;7.45;;
37983;SDS011;64625;50.882;4.376;2023-05-24T05:58:09;26.10;;;9.60;;
37983;SDS011;64625;50.882;4.376;2023-05-24T06:00:36;26.50;;;5.13;;
37983;SDS011;64625;50.882;4.376;2023-05-24T06:03:05;26.48;;;6.00;;
37983;SDS011;64625;50.882;4.376;2023-05-24T06:05:31;22.77;;;7.28;;
37983;SDS011;64625;50.882;4.376;2023-05-24T06:07:57;34.00;;;7.57;;
37983;SDS011;64625;50.882;4.376;2023-05-24T06:10:23;35.00;;;9.20;;
37983;SDS011;64625;50.882;4.376;2023-05-24T06:12:49;20.38;;;6.05;;
37983;SDS011;64625;50.882;4.376;2023-05-24T06:15:15;32.58;;;6.90;;
37983;SDS011;64625;50.882;4.376;2023-05-24T06:17:41;31.25;;;5.50;;
37983;SDS011;64625;50.882;4.376;2023-05-24T06:20:08;27.83;;;5.20;;
37983;SDS011;64625;50.882;4.376;2023-05-24T06:22:37;24.63;;;5.78;;
37983;SDS011;64625;50.882;4.376;2023-05-24T06:25:04;28.25;;;5.57;;
37983;SDS011;64625;50.882;4.376;2023-05-24T06:27:30;18.77;;;4.68;;
37983;SDS011;64625;50.882;4.376;2023-05-24T06:29:56;21.17;;;4.57;;
37983;SDS011;64625;50.882;4.376;2023-05-24T06:32:22;12.02;;;4.25;;
37983;SDS011;64625;50.882;4.376;2023-05-24T06:34:48;29.10;;;6.15;;
37983;SDS011;64625;50.882;4.376;2023-05-24T06:37:13;18.42;;;5.70;;
37983;SDS011;64625;50.882;4.376;2023-05-24T06:39:40;25.02;;;4.63;;
37983;SDS011;64625;50.882;4.376;2023-05-24T06:42:06;12.60;;;3.90;;
37983;SDS011;64625;50.882;4.376;2023-05-24T06:44:35;20.42;;;5.25;;
37983;SDS011;64625;50.882;4.376;2023-05-24T06:47:02;28.20;;;6.18;;
37983;SDS011;64625;50.882;4.376;2023-05-24T06:49:30;20.67;;;5.13;;
37983;SDS011;64625;50.882;4.376;2023-05-24T06:51:55;19.40;;;4.97;;
37983;SDS011;64625;50.882;4.376;2023-05-24T06:54:21;28.40;;;6.38;;
37983;SDS011;64625;50.882;4.376;2023-05-24T06:56:47;21.85;;;5.03;;
37983;SDS011;64625;50.882;4.376;2023-05-24T06:59:13;22.75;;;5.32;;
37983;SDS011;64625;50.882;4.376;2023-05-24T07:01:39;17.30;;;4.70;;
37983;SDS011;64625;50.882;4.376;2023-05-24T07:04:07;29.42;;;5.15;;
37983;SDS011;64625;50.882;4.376;2023-05-24T07:06:33;27.15;;;6.20;;
37983;SDS011;64625;50.882;4.376;2023-05-24T07:09:00;20.92;;;5.25;;
37983;SDS011;64625;50.882;4.376;2023-05-24T07:11:26;25.40;;;5.32;;
37983;SDS011;64625;50.882;4.376;2023-05-24T07:13:53;29.58;;;6.90;;
37983;SDS011;64625;50.882;4.376;2023-05-24T07:16:19;29.40;;;5.72;;
37983;SDS011;64625;50.882;4.376;2023-05-24T07:18:45;20.20;;;5.00;;
37983;SDS011;64625;50.882;4.376;2023-05-24T07:21:10;22.02;;;6.20;;
37983;SDS011;64625;50.882;4.376;2023-05-24T07:23:36;17.27;;;5.43;;
37983;SDS011;64625;50.882;4.376;2023-05-24T07:26:03;14.77;;;5.90;;
37983;SDS011;64625;50.882;4.376;2023-05-24T07:28:29;17.98;;;4.88;;
37983;SDS011;64625;50.882;4.376;2023-05-24T07:30:56;23.42;;;6.80;;
37983;SDS011;64625;50.882;4.376;2023-05-24T07:33:22;31.17;;;5.55;;
37983;SDS011;64625;50.882;4.376;2023-05-24T07:35:48;22.75;;;5.38;;
37983;SDS011;64625;50.882;4.376;2023-05-24T07:38:16;22.27;;;5.80;;
37983;SDS011;64625;50.882;4.376;2023-05-24T07:40:42;30.42;;;5.40;;
37983;SDS011;64625;50.882;4.376;2023-05-24T07:43:08;23.02;;;4.60;;
37983;SDS011;64625;50.882;4.376;2023-05-24T07:45:34;22.70;;;4.70;;
37983;SDS011;64625;50.882;4.376;2023-05-24T07:48:00;27.70;;;4.45;;
37983;SDS011;64625;50.882;4.376;2023-05-24T07:50:26;21.13;;;4.25;;
37983;SDS011;64625;50.882;4.376;2023-05-24T07:52:53;25.05;;;4.30;;
37983;SDS011;64625;50.882;4.376;2023-05-24T07:55:20;17.05;;;5.18;;
37983;SDS011;64625;50.882;4.376;2023-05-24T07:57:47;21.63;;;4.07;;
37983;SDS011;64625;50.882;4.376;2023-05-24T08:00:13;15.70;;;5.30;;
37983;SDS011;64625;50.882;4.376;2023-05-24T08:02:43;19.20;;;4.95;;
37983;SDS011;64625;50.882;4.376;2023-05-24T08:05:13;14.52;;;4.93;;
37983;SDS011;64625;50.882;4.376;2023-05-24T08:07:40;20.55;;;7.35;;
37983;SDS011;64625;50.882;4.376;2023-05-24T08:10:07;21.65;;;4.53;;
37983;SDS011;64625;50.882;4.376;2023-05-24T08:12:37;22.13;;;4.95;;
37983;SDS011;64625;50.882;4.376;2023-05-24T08:15:04;20.65;;;5.93;;
37983;SDS011;64625;50.882;4.376;2023-05-24T08:17:30;21.58;;;5.28;;
37983;SDS011;64625;50.882;4.376;2023-05-24T08:19:56;23.50;;;5.40;;
37983;SDS011;64625;50.882;4.376;2023-05-24T08:22:22;24.92;;;6.13;;
37983;SDS011;64625;50.882;4.376;2023-05-24T08:24:48;17.52;;;6.05;;
37983;SDS011;64625;50.882;4.376;2023-05-24T08:27:14;21.80;;;5.28;;
37983;SDS011;64625;50.882;4.376;2023-05-24T08:29:40;22.75;;;6.90;;
37983;SDS011;64625;50.882;4.376;2023-05-24T08:32:06;21.65;;;6.03;;
37983;SDS011;64625;50.882;4.376;2023-05-24T08:34:36;30.85;;;6.40;;
37983;SDS011;64625;50.882;4.376;2023-05-24T08:37:05;26.42;;;5.97;;
37983;SDS011;64625;50.882;4.376;2023-05-24T08:39:31;28.50;;;7.15;;
37983;SDS011;64625;50.882;4.376;2023-05-24T08:41:57;17.63;;;6.35;;
37983;SDS011;64625;50.882;4.376;2023-05-24T08:44:24;21.67;;;6.03;;
37983;SDS011;64625;50.882;4.376;2023-05-24T08:46:53;28.77;;;7.10;;
37983;SDS011;64625;50.882;4.376;2023-05-24T08:49:22;25.27;;;7.93;;
37983;SDS011;64625;50.882;4.376;2023-05-24T08:51:48;26.77;;;6.40;;
37983;SDS011;64625;50.882;4.376;2023-05-24T08:54:16;18.77;;;5.78;;
37983;SDS011;64625;50.882;4.376;2023-05-24T08:56:44;28.55;;;6.88;;
37983;SDS011;64625;50.882;4.376;2023-05-24T08:59:10;25.88;;;8.38;;
37983;SDS011;64625;50.882;4.376;2023-05-24T09:01:39;24.60;;;6.45;;
37983;SDS011;64625;50.882;4.376;2023-05-24T09:04:05;19.80;;;5.35;;
37983;SDS011;64625;50.882;4.376;2023-05-24T09:06:32;25.30;;;6.20;;
37983;SDS011;64625;50.882;4.376;2023-05-24T09:08:58;28.70;;;6.20;;
37983;SDS011;64625;50.882;4.376;2023-05-24T09:11:26;16.33;;;6.85;;
37983;SDS011;64625;50.882;4.376;2023-05-24T09:13:53;27.95;;;6.70;;
37983;SDS011;64625;50.882;4.376;2023-05-24T09:16:21;30.05;;;7.68;;
37983;SDS011;64625;50.882;4.376;2023-05-24T09:18:46;20.98;;;6.38;;
37983;SDS011;64625;50.882;4.376;2023-05-24T09:21:12;29.10;;;7.82;;
37983;SDS011;64625;50.882;4.376;2023-05-24T09:23:39;28.67;;;7.22;;
37983;SDS011;64625;50.882;4.376;2023-05-24T09:26:09;26.38;;;8.82;;
37983;SDS011;64625;50.882;4.376;2023-05-24T09:28:35;28.17;;;9.57;;
37983;SDS011;64625;50.882;4.376;2023-05-24T09:31:02;33.55;;;8.57;;
37983;SDS011;64625;50.882;4.376;2023-05-24T09:33:28;24.85;;;7.95;;
37983;SDS011;64625;50.882;4.376;2023-05-24T09:35:57;22.05;;;8.30;;
37983;SDS011;64625;50.882;4.376;2023-05-24T09:38:28;35.15;;;10.05;;
37983;SDS011;64625;50.882;4.376;2023-05-24T09:41:04;36.15;;;8.82;;
37983;SDS011;64625;50.882;4.376;2023-05-24T09:43:31;28.98;;;10.15;;
37983;SDS011;64625;50.882;4.376;2023-05-24T09:46:03;28.27;;;9.68;;
37983;SDS011;64625;50.882;4.376;2023-05-24T09:48:31;23.00;;;9.70;;
37983;SDS011;64625;50.882;4.376;2023-05-24T09:51:03;25.35;;;10.20;;
37983;SDS011;64625;50.882;4.376;2023-05-24T09:53:31;20.85;;;9.70;;
37983;SDS011;64625;50.882;4.376;2023-05-24T09:56:03;27.38;;;10.20;;
37983;SDS011;64625;50.882;4.376;2023-05-24T09:58:31;21.42;;;9.77;;
37983;SDS011;64625;50.882;4.376;2023-05-24T10:01:07;35.38;;;9.50;;
37983;SDS011;64625;50.882;4.376;2023-05-24T10:03:50;29.52;;;9.25;;
37983;SDS011;64625;50.882;4.376;2023-05-24T10:06:17;23.33;;;9.13;;
37983;SDS011;64625;50.882;4.376;2023-05-24T10:08:44;20.95;;;8.50;;
37983;SDS011;64625;50.882;4.376;2023-05-24T10:11:12;29.55;;;8.55;;
37983;SDS011;64625;50.882;4.376;2023-05-24T10:13:38;19.80;;;8.00;;
37983;SDS011;64625;50.882;4.376;2023-05-24T10:16:04;16.20;;;8.00;;
37983;SDS011;64625;50.882;4.376;2023-05-24T10:18:30;21.35;;;7.85;;
37983;SDS011;64625;50.882;4.376;2023-05-24T10:20:56;16.30;;;6.45;;
37983;SDS011;64625;50.882;4.376;2023-05-24T10:23:30;22.02;;;6.13;;
37983;SDS011;64625;50.882;4.376;2023-05-24T10:26:02;13.10;;;5.68;;
37983;SDS011;64625;50.882;4.376;2023-05-24T10:28:33;14.88;;;6.30;;
37983;SDS011;64625;50.882;4.376;2023-05-24T10:33:35;15.35;;;7.15;;
37983;SDS011;64625;50.882;4.376;2023-05-24T10:36:02;22.00;;;6.90;;
37983;SDS011;64625;50.882;4.376;2023-05-24T10:38:32;20.80;;;6.63;;
37983;SDS011;64625;50.882;4.376;2023-05-24T10:40:58;13.18;;;5.20;;
37983;SDS011;64625;50.882;4.376;2023-05-24T10:43:25;21.55;;;5.97;;
37983;SDS011;64625;50.882;4.376;2023-05-24T10:45:51;17.85;;;4.22;;
37983;SDS011;64625;50.882;4.376;2023-05-24T10:50:52;20.48;;;6.82;;
37983;SDS011;64625;50.882;4.376;2023-05-24T10:53:20;16.00;;;5.18;;
37983;SDS011;64625;50.882;4.376;2023-05-24T10:55:57;22.05;;;5.47;;
37983;SDS011;64625;50.882;4.376;2023-05-24T10:58:43;20.77;;;4.60;;
37983;SDS011;64625;50.882;4.376;2023-05-24T11:01:13;25.52;;;5.32;;
37983;SDS011;64625;50.882;4.376;2023-05-24T11:04:09;16.73;;;5.57;;
37983;SDS011;64625;50.882;4.376;2023-05-24T11:09:22;14.57;;;4.13;;
37983;SDS011;64625;50.882;4.376;2023-05-24T11:11:50;14.18;;;4.47;;
37983;SDS011;64625;50.882;4.376;2023-05-24T11:14:24;24.63;;;5.20;;
37983;SDS011;64625;50.882;4.376;2023-05-24T11:16:53;22.88;;;4.95;;
37983;SDS011;64625;50.882;4.376;2023-05-24T11:19:30;17.95;;;5.30;;
37983;SDS011;64625;50.882;4.376;2023-05-24T11:21:58;17.58;;;4.93;;
37983;SDS011;64625;50.882;4.376;2023-05-24T11:24:26;9.93;;;4.47;;
37983;SDS011;64625;50.882;4.376;2023-05-24T11:26:53;17.60;;;4.80;;
37983;SDS011;64625;50.882;4.376;2023-05-24T11:29:21;17.85;;;5.25;;
37983;SDS011;64625;50.882;4.376;2023-05-24T11:31:51;19.13;;;4.55;;
37983;SDS011;64625;50.882;4.376;2023-05-24T11:34:18;13.43;;;5.32;;
37983;SDS011;64625;50.882;4.376;2023-05-24T11:36:45;24.13;;;5.30;;
37983;SDS011;64625;50.882;4.376;2023-05-24T11:39:12;13.63;;;4.85;;
37983;SDS011;64625;50.882;4.376;2023-05-24T11:41:38;22.23;;;5.55;;
37983;SDS011;64625;50.882;4.376;2023-05-24T11:44:05;9.48;;;4.07;;
37983;SDS011;64625;50.882;4.376;2023-05-24T11:46:32;12.98;;;4.38;;
37983;SDS011;64625;50.882;4.376;2023-05-24T11:48:58;14.82;;;4.82;;
37983;SDS011;64625;50.882;4.376;2023-05-24T11:51:27;17.35;;;4.95;;
37983;SDS011;64625;50.882;4.376;2023-05-24T11:53:54;16.88;;;4.93;;
37983;SDS011;64625;50.882;4.376;2023-05-24T11:56:23;12.35;;;3.67;;
37983;SDS011;64625;50.882;4.376;2023-05-24T12:01:43;25.23;;;5.43;;
37983;SDS011;64625;50.882;4.376;2023-05-24T12:04:09;14.20;;;4.90;;
37983;SDS011;64625;50.882;4.376;2023-05-24T12:06:36;5.47;;;3.40;;
37983;SDS011;64625;50.882;4.376;2023-05-24T12:09:06;14.93;;;4.22;;
37983;SDS011;64625;50.882;4.376;2023-05-24T12:11:37;15.98;;;4.13;;
37983;SDS011;64625;50.882;4.376;2023-05-24T12:14:10;20.35;;;4.32;;
37983;SDS011;64625;50.882;4.376;2023-05-24T12:16:37;13.35;;;5.40;;
37983;SDS011;64625;50.882;4.376;2023-05-24T12:19:04;11.20;;;4.50;;
37983;SDS011;64625;50.882;4.376;2023-05-24T12:21:31;18.13;;;4.90;;
37983;SDS011;64625;50.882;4.376;2023-05-24T12:24:03;13.80;;;4.65;;
37983;SDS011;64625;50.882;4.376;2023-05-24T12:26:40;19.15;;;5.07;;
37983;SDS011;64625;50.882;4.376;2023-05-24T12:29:11;15.93;;;5.68;;
37983;SDS011;64625;50.882;4.376;2023-05-24T12:31:40;25.00;;;4.60;;
37983;SDS011;64625;50.882;4.376;2023-05-24T12:34:25;28.50;;;4.45;;
37983;SDS011;64625;50.882;4.376;2023-05-24T12:36:51;12.02;;;4.53;;
37983;SDS011;64625;50.882;4.376;2023-05-24T12:39:24;18.65;;;4.35;;
37983;SDS011;64625;50.882;4.376;2023-05-24T12:42:01;16.58;;;3.90;;
37983;SDS011;64625;50.882;4.376;2023-05-24T12:44:28;12.05;;;3.95;;
37983;SDS011;64625;50.882;4.376;2023-05-24T12:46:57;10.40;;;4.20;;
37983;SDS011;64625;50.882;4.376;2023-05-24T12:49:24;20.08;;;4.85;;
37983;SDS011;64625;50.882;4.376;2023-05-24T12:51:52;9.90;;;4.57;;
37983;SDS011;64625;50.882;4.376;2023-05-24T12:54:21;15.43;;;5.32;;
37983;SDS011;64625;50.882;4.376;2023-05-24T12:56:49;19.83;;;4.95;;
37983;SDS011;64625;50.882;4.376;2023-05-24T12:59:16;26.95;;;5.32;;
37983;SDS011;64625;50.882;4.376;2023-05-24T13:01:42;8.70;;;3.67;;
37983;SDS011;64625;50.882;4.376;2023-05-24T13:04:18;10.65;;;3.80;;
37983;SDS011;64625;50.882;4.376;2023-05-24T13:06:48;13.07;;;4.65;;
37983;SDS011;64625;50.882;4.376;2023-05-24T13:09:14;13.27;;;3.55;;
37983;SDS011;64625;50.882;4.376;2023-05-24T13:11:45;12.70;;;4.03;;
37983;SDS011;64625;50.882;4.376;2023-05-24T13:14:11;20.50;;;4.13;;
37983;SDS011;64625;50.882;4.376;2023-05-24T13:16:37;17.40;;;4.18;;
37983;SDS011;64625;50.882;4.376;2023-05-24T13:19:02;24.02;;;5.13;;
37983;SDS011;64625;50.882;4.376;2023-05-24T13:21:34;15.70;;;3.58;;
37983;SDS011;64625;50.882;4.376;2023-05-24T13:24:00;19.42;;;4.53;;
37983;SDS011;64625;50.882;4.376;2023-05-24T13:26:26;26.73;;;4.38;;
37983;SDS011;64625;50.882;4.376;2023-05-24T13:28:53;9.27;;;3.90;;
37983;SDS011;64625;50.882;4.376;2023-05-24T13:31:19;11.90;;;4.65;;
37983;SDS011;64625;50.882;4.376;2023-05-24T13:33:45;17.30;;;5.53;;
37983;SDS011;64625;50.882;4.376;2023-05-24T13:36:11;14.43;;;4.35;;
37983;SDS011;64625;50.882;4.376;2023-05-24T13:38:37;16.25;;;4.50;;
37983;SDS011;64625;50.882;4.376;2023-05-24T13:41:03;18.58;;;4.30;;
37983;SDS011;64625;50.882;4.376;2023-05-24T13:43:29;14.75;;;4.13;;
37983;SDS011;64625;50.882;4.376;2023-05-24T13:45:55;19.27;;;4.57;;
37983;SDS011;64625;50.882;4.376;2023-05-24T13:48:22;16.73;;;4.13;;
37983;SDS011;64625;50.882;4.376;2023-05-24T13:50:52;17.83;;;4.70;;
37983;SDS011;64625;50.882;4.376;2023-05-24T13:53:18;14.70;;;4.15;;
37983;SDS011;64625;50.882;4.376;2023-05-24T13:55:47;22.27;;;4.05;;
37983;SDS011;64625;50.882;4.376;2023-05-24T13:58:13;14.68;;;4.85;;
37983;SDS011;64625;50.882;4.376;2023-05-24T14:00:39;21.73;;;5.32;;
37983;SDS011;64625;50.882;4.376;2023-05-24T14:03:06;29.45;;;5.95;;
37983;SDS011;64625;50.882;4.376;2023-05-24T14:05:32;27.63;;;5.40;;
37983;SDS011;64625;50.882;4.376;2023-05-24T14:07:58;16.55;;;4.70;;
37983;SDS011;64625;50.882;4.376;2023-05-24T14:10:31;17.63;;;4.80;;
37983;SDS011;64625;50.882;4.376;2023-05-24T14:13:00;24.70;;;5.00;;
37983;SDS011;64625;50.882;4.376;2023-05-24T14:15:30;30.75;;;5.47;;
37983;SDS011;64625;50.882;4.376;2023-05-24T14:17:57;24.90;;;5.60;;
37983;SDS011;64625;50.882;4.376;2023-05-24T14:20:27;17.73;;;4.80;;
37983;SDS011;64625;50.882;4.376;2023-05-24T14:22:53;20.60;;;4.80;;
37983;SDS011;64625;50.882;4.376;2023-05-24T14:25:19;18.42;;;4.35;;
37983;SDS011;64625;50.882;4.376;2023-05-24T14:27:46;23.10;;;5.30;;
37983;SDS011;64625;50.882;4.376;2023-05-24T14:30:11;18.20;;;4.55;;
37983;SDS011;64625;50.882;4.376;2023-05-24T14:32:38;18.13;;;5.30;;
37983;SDS011;64625;50.882;4.376;2023-05-24T14:35:04;15.23;;;4.55;;
37983;SDS011;64625;50.882;4.376;2023-05-24T14:37:30;31.80;;;4.85;;
37983;SDS011;64625;50.882;4.376;2023-05-24T14:39:56;16.70;;;4.63;;
37983;SDS011;64625;50.882;4.376;2023-05-24T14:42:22;18.30;;;4.35;;
37983;SDS011;64625;50.882;4.376;2023-05-24T14:44:47;12.98;;;4.88;;
37983;SDS011;64625;50.882;4.376;2023-05-24T14:47:13;17.77;;;4.32;;
37983;SDS011;64625;50.882;4.376;2023-05-24T14:49:39;20.48;;;4.32;;
37983;SDS011;64625;50.882;4.376;2023-05-24T14:52:05;22.83;;;4.47;;
37983;SDS011;64625;50.882;4.376;2023-05-24T14:54:31;17.33;;;4.72;;
37983;SDS011;64625;50.882;4.376;2023-05-24T14:56:56;19.27;;;5.53;;
37983;SDS011;64625;50.882;4.376;2023-05-24T14:59:22;11.20;;;4.43;;
37983;SDS011;64625;50.882;4.376;2023-05-24T15:01:48;16.83;;;4.28;;
37983;SDS011;64625;50.882;4.376;2023-05-24T15:04:14;13.73;;;3.60;;
37983;SDS011;64625;50.882;4.376;2023-05-24T15:06:39;17.52;;;4.65;;
37983;SDS011;64625;50.882;4.376;2023-05-24T15:09:05;20.55;;;4.43;;